Terminal Aerodrome Forecast
Issued by NWS

Home | Current Version | Previous Version | Text Only | Print | Product List | Glossary On
Versions: 1 2 3 4 5 6 7 8 9 10 11 12 13 14 15 16 17 18 19 20 21 22
000
FTUS43 KDVN 201701 AAB
TAFCID
TAF AMD
KCID 201701Z 2017/2112 15014G21KT 6SM BR OVC080
     FM202200 16010KT 5SM -SHRA VCTS OVC015CB
     FM210200 24007KT 4SM BR BKN008
     FM210600 28008KT 6SM BR BKN050=

USA.gov is the U.S. government's official web portal to all federal, state and local government web resources and services.